createdAt,value
2022-09-06T00:00:27.671Z,6.27
2022-09-06T00:02:55.960Z,7.00
2022-09-06T00:05:24.361Z,7.33
2022-09-06T00:07:52.644Z,7.20
2022-09-06T00:10:21.193Z,6.87
2022-09-06T00:12:50.852Z,7.40
2022-09-06T00:15:19.275Z,7.43
2022-09-06T00:17:47.483Z,7.30
2022-09-06T00:20:15.800Z,8.00
2022-09-06T00:22:44.091Z,7.40
2022-09-06T00:25:12.395Z,7.60
2022-09-06T00:27:40.693Z,7.63
2022-09-06T00:30:12.311Z,7.77
2022-09-06T00:32:41.430Z,7.77
2022-09-06T00:35:09.734Z,7.57
2022-09-06T00:37:38.001Z,7.13
2022-09-06T00:40:07.019Z,7.40
2022-09-06T00:42:35.783Z,7.47
2022-09-06T00:45:04.434Z,7.60
2022-09-06T00:47:36.014Z,7.73
2022-09-06T00:50:04.689Z,7.57
2022-09-06T00:52:33.893Z,7.30
2022-09-06T00:55:02.522Z,7.87
2022-09-06T00:57:32.431Z,7.43
2022-09-06T01:00:01.503Z,8.27
2022-09-06T01:02:29.930Z,8.30
2022-09-06T01:04:59.903Z,7.37
2022-09-06T01:07:35.804Z,7.53
2022-09-06T01:10:24.013Z,7.60
2022-09-06T01:12:58.857Z,7.93
2022-09-06T01:15:35.900Z,7.63
2022-09-06T01:18:14.433Z,7.60
2022-09-06T01:20:53.623Z,8.30
2022-09-06T01:23:56.903Z,7.90
2022-09-06T01:26:40.203Z,8.13
2022-09-06T01:29:14.603Z,8.67
2022-09-06T01:31:45.963Z,8.70
2022-09-06T01:34:22.813Z,8.90
2022-09-06T01:37:09.576Z,8.83
2022-09-06T01:39:39.514Z,9.70
2022-09-06T01:42:10.626Z,9.10
2022-09-06T01:44:41.103Z,9.70
2022-09-06T01:47:19.082Z,9.37
2022-09-06T01:52:55.116Z,8.30
2022-09-06T01:55:28.210Z,8.10
2022-09-06T01:58:23.472Z,8.90
2022-09-06T02:00:59.382Z,8.53
2022-09-06T02:03:33.165Z,8.67
2022-09-06T02:06:06.904Z,8.77
2022-09-06T02:08:37.076Z,9.73
2022-09-06T02:11:07.503Z,9.40
2022-09-06T02:13:40.285Z,8.97
2022-09-06T02:16:11.207Z,9.47
2022-09-06T02:18:42.255Z,8.87
2022-09-06T02:21:12.317Z,8.63
2022-09-06T02:23:41.695Z,8.40
2022-09-06T02:26:13.994Z,9.07
2022-09-06T02:28:42.337Z,9.57
2022-09-06T02:31:14.621Z,9.43
2022-09-06T02:33:43.220Z,9.23
2022-09-06T02:36:11.466Z,8.83
2022-09-06T02:38:41.463Z,8.90
2022-09-06T02:41:10.120Z,9.80
2022-09-06T02:43:38.362Z,9.23
2022-09-06T02:46:06.891Z,8.87
2022-09-06T02:48:36.712Z,8.93
2022-09-06T02:51:05.771Z,8.77
2022-09-06T02:53:34.081Z,9.90
2022-09-06T02:56:02.470Z,9.50
2022-09-06T02:58:30.843Z,9.70
2022-09-06T03:00:59.143Z,9.63
2022-09-06T03:03:27.644Z,10.60
2022-09-06T03:05:57.442Z,9.70
2022-09-06T03:08:26.970Z,11.00
2022-09-06T03:10:57.080Z,10.57
2022-09-06T03:13:26.163Z,10.13
2022-09-06T03:15:55.390Z,10.17
2022-09-06T03:18:23.892Z,9.70
2022-09-06T03:20:52.807Z,9.77
2022-09-06T03:23:23.878Z,10.07
2022-09-06T03:25:52.393Z,10.33
2022-09-06T03:28:21.314Z,9.87
2022-09-06T03:30:51.552Z,10.70
2022-09-06T03:33:20.235Z,10.00
2022-09-06T03:35:52.964Z,10.17
2022-09-06T03:38:23.555Z,9.93
2022-09-06T03:40:52.990Z,9.57
2022-09-06T03:43:23.223Z,9.67
2022-09-06T03:45:52.856Z,9.87
2022-09-06T03:48:22.507Z,9.67
2022-09-06T03:50:52.352Z,9.90
2022-09-06T03:53:20.632Z,10.13
2022-09-06T03:55:51.153Z,10.50
2022-09-06T03:58:21.026Z,10.40
2022-09-06T04:00:49.453Z,9.60
2022-09-06T04:03:19.610Z,9.80
2022-09-06T04:05:47.855Z,10.10
2022-09-06T04:08:16.081Z,10.07
2022-09-06T04:10:45.443Z,10.30
2022-09-06T04:13:15.536Z,9.77
2022-09-06T04:15:47.152Z,9.43
2022-09-06T04:18:15.981Z,9.83
2022-09-06T04:20:44.506Z,9.67
2022-09-06T04:23:13.222Z,10.63
2022-09-06T04:25:42.812Z,10.27
2022-09-06T04:28:11.830Z,11.13
2022-09-06T04:30:41.456Z,10.40
2022-09-06T04:33:09.723Z,12.43
2022-09-06T04:35:37.942Z,12.00
2022-09-06T04:38:06.460Z,11.50
2022-09-06T04:40:34.687Z,11.67
2022-09-06T04:43:02.932Z,11.87
2022-09-06T04:45:31.194Z,11.17
2022-09-06T04:48:00.992Z,11.50
2022-09-06T04:50:29.221Z,10.67
2022-09-06T04:52:57.460Z,10.93
2022-09-06T04:55:26.580Z,10.80
2022-09-06T04:57:54.820Z,11.47
2022-09-06T05:00:23.043Z,10.93
2022-09-06T05:02:51.291Z,10.53
2022-09-06T05:05:20.903Z,12.27
2022-09-06T05:07:49.469Z,11.53
2022-09-06T05:10:17.934Z,11.07
2022-09-06T05:12:49.827Z,11.37
2022-09-06T05:15:18.162Z,11.30
2022-09-06T05:17:46.532Z,10.97
2022-09-06T05:20:15.054Z,12.07
2022-09-06T05:22:44.781Z,11.77
2022-09-06T05:25:12.973Z,11.67
2022-09-06T05:27:41.095Z,12.13
2022-09-06T05:30:10.472Z,12.63
2022-09-06T05:32:38.592Z,12.27
2022-09-06T05:35:06.923Z,12.03
2022-09-06T05:37:35.099Z,12.93
2022-09-06T05:40:05.339Z,13.33
2022-09-06T05:42:33.804Z,11.90
2022-09-06T05:45:02.385Z,13.50
2022-09-06T05:47:34.519Z,12.87
2022-09-06T05:50:02.729Z,12.03
2022-09-06T05:52:30.873Z,12.20
2022-09-06T05:54:59.153Z,10.97
2022-09-06T05:57:28.914Z,12.33
2022-09-06T05:59:57.066Z,12.67
2022-09-06T06:02:25.457Z,13.30
2022-09-06T06:04:54.613Z,11.63
2022-09-06T06:07:22.728Z,10.77
2022-09-06T06:09:50.963Z,10.93
2022-09-06T06:12:19.182Z,11.67
2022-09-06T06:14:48.687Z,10.87
2022-09-06T06:17:16.831Z,9.73
2022-09-06T06:19:44.984Z,10.98
2022-09-06T06:22:13.273Z,10.33
2022-09-06T06:24:41.473Z,10.03
2022-09-06T06:27:09.705Z,9.10
2022-09-06T06:29:37.883Z,10.47
2022-09-06T06:32:07.620Z,10.00
2022-09-06T06:34:35.762Z,9.43
2022-09-06T06:37:03.971Z,9.00
2022-09-06T06:39:32.225Z,9.23
2022-09-06T06:42:00.533Z,9.33
2022-09-06T06:44:28.734Z,8.70
2022-09-06T06:46:58.144Z,9.63
2022-09-06T06:49:28.611Z,9.53
2022-09-06T06:51:56.752Z,8.47
2022-09-06T06:54:24.913Z,9.20
2022-09-06T06:56:53.194Z,10.23
2022-09-06T06:59:21.973Z,10.27
2022-09-06T07:01:50.885Z,8.20
2022-09-06T07:04:19.111Z,8.40
2022-09-06T07:12:30.571Z,8.70
2022-09-06T07:14:58.793Z,7.90
2022-09-06T07:17:27.094Z,8.80
2022-09-06T07:22:44.760Z,8.10
2022-09-06T07:25:16.563Z,8.17
2022-09-06T07:27:49.482Z,8.73
2022-09-06T07:30:20.095Z,8.53
2022-09-06T07:32:48.451Z,8.07
2022-09-06T07:35:16.781Z,11.37
2022-09-06T07:37:53.684Z,8.97
2022-09-06T07:40:21.985Z,7.53
2022-09-06T07:42:50.122Z,7.70
2022-09-06T07:45:18.493Z,7.23
2022-09-06T07:48:02.140Z,7.50
2022-09-06T07:50:47.479Z,8.10
2022-09-06T07:53:27.711Z,7.43
2022-09-06T07:55:58.567Z,7.70
2022-09-06T07:58:26.875Z,7.60
2022-09-06T08:00:55.063Z,7.30
2022-09-06T08:03:23.302Z,8.77
2022-09-06T08:11:26.247Z,9.60
2022-09-06T08:13:55.903Z,9.10
2022-09-06T08:16:25.123Z,8.53
2022-09-06T08:18:53.829Z,7.80
2022-09-06T08:21:23.694Z,7.30
2022-09-06T08:23:55.483Z,6.63
2022-09-06T08:26:24.863Z,6.77
2022-09-06T08:28:55.395Z,6.73
2022-09-06T08:31:23.615Z,7.60
2022-09-06T08:33:52.827Z,6.83
2022-09-06T08:36:21.884Z,7.13
2022-09-06T08:38:50.106Z,6.60
2022-09-06T08:41:26.141Z,7.07
2022-09-06T08:46:49.647Z,6.10
2022-09-06T08:49:17.964Z,6.40
2022-09-06T08:52:00.523Z,6.30
2022-09-06T08:54:33.123Z,7.20
2022-09-06T08:57:12.465Z,10.73
2022-09-06T08:59:43.162Z,6.97
2022-09-06T09:02:13.475Z,7.03
2022-09-06T09:04:45.643Z,6.37
2022-09-06T09:07:25.208Z,6.57
2022-09-06T09:09:53.934Z,6.63
2022-09-06T09:12:24.882Z,6.93
2022-09-06T09:14:55.924Z,6.50
2022-09-06T09:17:30.137Z,6.80
2022-09-06T09:19:58.363Z,7.13
2022-09-06T09:22:26.877Z,7.30
2022-09-06T09:24:55.843Z,7.40
2022-09-06T09:27:27.404Z,6.53
2022-09-06T09:32:50.258Z,6.33
2022-09-06T09:35:36.763Z,6.20
2022-09-06T09:38:11.714Z,6.37
2022-09-06T09:40:44.143Z,6.10
2022-09-06T09:43:16.979Z,6.20
2022-09-06T09:45:45.544Z,5.87
2022-09-06T09:48:22.652Z,6.00
2022-09-06T09:50:50.912Z,6.00
2022-09-06T09:53:21.817Z,5.90
2022-09-06T09:55:50.291Z,5.60
2022-09-06T09:58:25.954Z,5.67
2022-09-06T10:01:18.685Z,5.90
2022-09-06T10:09:32.653Z,5.47
2022-09-06T10:12:01.723Z,6.30
2022-09-06T10:14:33.778Z,5.20
2022-09-06T10:17:02.444Z,6.90
2022-09-06T10:19:42.023Z,6.23
2022-09-06T10:22:31.996Z,6.40
2022-09-06T10:25:35.764Z,6.17
2022-09-06T10:28:29.890Z,6.20
2022-09-06T10:31:20.555Z,6.80
2022-09-06T10:34:01.181Z,6.70
2022-09-06T10:36:33.056Z,7.50
2022-09-06T10:39:04.219Z,8.03
2022-09-06T10:41:40.703Z,7.13
2022-09-06T10:44:18.022Z,7.47
2022-09-06T10:46:48.435Z,7.00
2022-09-06T10:49:19.384Z,7.33
2022-09-06T10:51:51.104Z,6.87
2022-09-06T10:54:23.281Z,7.20
2022-09-06T10:56:54.061Z,6.80
2022-09-06T10:59:41.925Z,7.77
2022-09-06T11:02:24.583Z,7.10
2022-09-06T11:10:33.747Z,6.10
2022-09-06T11:13:06.417Z,6.40
2022-09-06T11:15:39.050Z,6.63
2022-09-06T11:18:12.624Z,6.73
2022-09-06T11:20:43.911Z,6.07
2022-09-06T11:23:29.518Z,6.07
2022-09-06T11:26:34.653Z,5.57
2022-09-06T11:29:05.014Z,6.03
2022-09-06T11:34:26.576Z,5.30
2022-09-06T11:36:56.546Z,5.23
2022-09-06T11:42:43.284Z,4.97
2022-09-06T11:45:21.534Z,4.97
2022-09-06T11:47:51.225Z,4.93
2022-09-06T11:51:06.791Z,5.17
2022-09-06T11:53:36.643Z,5.10
2022-09-06T11:56:25.836Z,5.23
2022-09-06T11:58:57.919Z,4.50
2022-09-06T12:01:36.699Z,5.13
2022-09-06T12:04:10.716Z,5.00
2022-09-06T12:06:44.061Z,4.57
2022-09-06T12:09:29.917Z,4.70
2022-09-06T12:11:59.205Z,5.10
2022-09-06T12:14:34.356Z,4.60
2022-09-06T12:17:26.428Z,4.63
2022-09-06T12:19:58.076Z,4.80
2022-09-06T12:23:02.730Z,4.47
2022-09-06T12:25:58.208Z,4.50
2022-09-06T12:28:51.656Z,4.73
2022-09-06T12:31:39.191Z,4.83
2022-09-06T12:34:14.246Z,4.67
2022-09-06T12:36:51.151Z,4.10
2022-09-06T12:39:21.467Z,3.67
2022-09-06T12:41:52.674Z,3.67
2022-09-06T12:44:29.966Z,3.80
2022-09-06T12:47:01.075Z,4.20
2022-09-06T12:49:29.386Z,3.90
2022-09-06T12:52:09.027Z,3.40
2022-09-06T12:54:47.024Z,3.37
2022-09-06T12:57:20.931Z,3.23
2022-09-06T12:59:53.873Z,2.60
2022-09-06T13:02:26.661Z,2.77
2022-09-06T13:04:57.737Z,2.80
2022-09-06T13:07:27.298Z,3.13
2022-09-06T13:09:56.776Z,2.50
2022-09-06T13:12:29.758Z,3.00
2022-09-06T13:15:00.425Z,3.20
2022-09-06T13:17:31.018Z,2.40
2022-09-06T13:20:00.066Z,2.60
2022-09-06T13:22:43.576Z,2.67
2022-09-06T13:25:20.338Z,2.60
2022-09-06T13:27:51.463Z,2.43
2022-09-06T13:30:38.726Z,2.43
2022-09-06T13:33:08.325Z,2.70
2022-09-06T13:35:39.217Z,2.90
2022-09-06T13:38:32.015Z,3.17
2022-09-06T13:41:16.887Z,3.27
2022-09-06T13:43:48.747Z,3.17
2022-09-06T13:46:17.138Z,3.42
2022-09-06T13:48:45.493Z,3.67
2022-09-06T13:51:13.724Z,3.10
2022-09-06T13:53:42.066Z,2.83
2022-09-06T13:56:12.106Z,3.07
2022-09-06T13:58:40.331Z,2.63
2022-09-06T14:01:10.846Z,2.47
2022-09-06T14:03:42.363Z,2.47
2022-09-06T14:06:11.481Z,2.83
2022-09-06T14:09:05.360Z,2.80
2022-09-06T14:11:27.967Z,2.92
2022-09-06T14:13:56.343Z,2.83
2022-09-06T14:16:26.046Z,2.53
2022-09-06T14:18:54.386Z,2.30
2022-09-06T14:21:22.724Z,2.50
2022-09-06T14:23:52.442Z,2.95
2022-09-06T14:26:21.419Z,2.95
2022-09-06T14:28:49.747Z,2.47
2022-09-06T14:31:19.467Z,2.95
2022-09-06T14:33:49.615Z,2.40
2022-09-06T14:36:19.849Z,3.08
2022-09-06T14:38:48.646Z,2.72
2022-09-06T14:41:18.637Z,2.30
2022-09-06T14:43:50.681Z,2.45
2022-09-06T14:46:19.799Z,3.10
2022-09-06T14:48:49.886Z,2.80
2022-09-06T14:51:22.080Z,2.72
2022-09-06T14:53:53.585Z,2.67
2022-09-06T14:56:22.183Z,2.70
2022-09-06T14:58:50.627Z,2.70
2022-09-06T15:01:20.665Z,2.67
2022-09-06T15:03:52.908Z,2.60
2022-09-06T15:06:22.336Z,2.72
2022-09-06T15:08:52.862Z,2.75
2022-09-06T15:11:34.437Z,3.47
2022-09-06T15:14:04.226Z,3.07
2022-09-06T15:16:33.024Z,3.30
2022-09-06T15:19:02.982Z,3.60
2022-09-06T15:21:31.515Z,3.13
2022-09-06T15:24:00.173Z,3.13
2022-09-06T15:26:28.456Z,3.00
2022-09-06T15:28:56.699Z,3.33
2022-09-06T15:31:24.996Z,3.70
2022-09-06T15:33:54.219Z,3.07
2022-09-06T15:36:24.263Z,3.33
2022-09-06T15:38:54.424Z,3.70
2022-09-06T15:41:25.412Z,3.40
2022-09-06T15:43:56.835Z,3.10
2022-09-06T15:46:42.715Z,3.57
2022-09-06T15:49:12.066Z,2.93
2022-09-06T15:51:42.207Z,3.20
2022-09-06T15:54:11.057Z,3.87
2022-09-06T15:56:38.376Z,3.40
2022-09-06T15:59:07.296Z,3.43
2022-09-06T16:01:35.968Z,3.73
2022-09-06T16:04:06.175Z,3.63
2022-09-06T16:06:36.520Z,3.50
2022-09-06T16:09:08.766Z,3.20
2022-09-06T16:11:37.297Z,4.00
2022-09-06T16:14:06.165Z,3.80
2022-09-06T16:16:34.862Z,3.63
2022-09-06T16:19:03.566Z,3.90
2022-09-06T16:21:33.293Z,3.13
2022-09-06T16:24:02.878Z,3.43
2022-09-06T16:26:34.724Z,3.50
2022-09-06T16:29:03.736Z,3.07
2022-09-06T16:31:39.168Z,3.63
2022-09-06T16:34:08.496Z,3.30
2022-09-06T16:36:36.756Z,3.50
2022-09-06T16:39:05.365Z,3.10
2022-09-06T16:41:39.196Z,4.40
2022-09-06T16:44:07.660Z,3.50
2022-09-06T16:46:35.875Z,3.33
2022-09-06T16:49:04.743Z,3.60
2022-09-06T16:51:33.725Z,3.67
2022-09-06T16:54:02.907Z,3.40
2022-09-06T16:56:34.935Z,3.23
2022-09-06T16:59:06.570Z,3.30
2022-09-06T17:01:36.496Z,3.50
2022-09-06T17:04:05.783Z,3.10
2022-09-06T17:06:35.964Z,3.30
2022-09-06T17:09:04.475Z,3.93
2022-09-06T17:11:32.625Z,3.23
2022-09-06T17:14:01.356Z,3.53
2022-09-06T17:16:48.979Z,3.80
2022-09-06T17:19:17.386Z,3.33
2022-09-06T17:21:45.846Z,4.00
2022-09-06T17:24:14.184Z,3.60
2022-09-06T17:26:42.377Z,3.60
2022-09-06T17:29:11.013Z,3.17
2022-09-06T17:31:40.644Z,3.53
2022-09-06T17:34:09.175Z,3.40
2022-09-06T17:36:37.817Z,3.50
2022-09-06T17:39:08.035Z,3.87
2022-09-06T17:41:38.942Z,3.90
2022-09-06T17:44:08.395Z,3.10
2022-09-06T17:46:38.962Z,6.47
2022-09-06T17:49:13.986Z,5.83
2022-09-06T17:51:42.589Z,4.47
2022-09-06T17:54:11.185Z,3.87
2022-09-06T17:56:39.743Z,4.00
2022-09-06T17:59:09.775Z,4.03
2022-09-06T18:01:41.274Z,9.27
2022-09-06T18:04:11.105Z,6.90
2022-09-06T18:06:42.465Z,6.17
2022-09-06T18:09:12.246Z,4.30
2022-09-06T18:11:41.216Z,4.30
2022-09-06T18:14:10.961Z,3.90
2022-09-06T18:16:40.393Z,3.93
2022-09-06T18:19:10.175Z,3.70
2022-09-06T18:21:41.226Z,4.03
2022-09-06T18:24:09.915Z,4.47
2022-09-06T18:26:38.587Z,4.30
2022-09-06T18:29:11.810Z,4.00
2022-09-06T18:31:41.216Z,4.60
2022-09-06T18:34:10.257Z,3.13
2022-09-06T18:36:38.649Z,3.93
2022-09-06T18:39:08.548Z,3.83
2022-09-06T18:41:54.428Z,4.30
2022-09-06T18:44:23.286Z,4.10
2022-09-06T18:46:51.539Z,4.13
2022-09-06T18:49:19.886Z,4.70
2022-09-06T18:51:48.077Z,5.23
2022-09-06T18:54:18.165Z,4.90
2022-09-06T18:56:46.435Z,5.10
2022-09-06T18:59:15.232Z,5.20
2022-09-06T19:01:43.910Z,4.93
2022-09-06T19:04:12.967Z,4.47
2022-09-06T19:06:42.483Z,4.67
2022-09-06T19:09:12.953Z,4.57
2022-09-06T19:11:43.623Z,5.10
2022-09-06T19:14:11.895Z,4.97
2022-09-06T19:16:40.179Z,4.97
2022-09-06T19:19:10.066Z,5.70
2022-09-06T19:21:41.966Z,5.53
2022-09-06T19:24:12.318Z,4.37
2022-09-06T19:26:44.298Z,5.97
2022-09-06T19:29:14.518Z,5.63
2022-09-06T19:31:43.350Z,5.23
2022-09-06T19:34:12.426Z,5.37
2022-09-06T19:36:40.793Z,5.93
2022-09-06T19:39:11.089Z,6.43
2022-09-06T19:41:43.090Z,5.33
2022-09-06T19:44:13.193Z,4.90
2022-09-06T19:46:45.684Z,4.80
2022-09-06T19:49:15.108Z,5.10
2022-09-06T19:51:45.391Z,4.50
2022-09-06T19:54:15.643Z,4.63
2022-09-06T19:56:44.917Z,5.23
2022-09-06T19:59:15.574Z,5.27
2022-09-06T20:01:45.478Z,5.50
2022-09-06T20:04:14.638Z,7.10
2022-09-06T20:06:42.884Z,8.23
2022-09-06T20:09:11.915Z,7.70
2022-09-06T20:11:41.389Z,6.87
2022-09-06T20:14:09.983Z,4.60
2022-09-06T20:16:42.096Z,5.43
2022-09-06T20:19:11.286Z,5.33
2022-09-06T20:21:39.426Z,5.70
2022-09-06T20:24:08.031Z,5.67
2022-09-06T20:26:36.266Z,5.90
2022-09-06T20:29:05.185Z,5.60
2022-09-06T20:31:34.771Z,5.10
2022-09-06T20:34:05.708Z,4.90
2022-09-06T20:36:33.958Z,5.50
2022-09-06T20:39:02.296Z,5.67
2022-09-06T20:41:30.488Z,5.57
2022-09-06T20:44:00.117Z,5.37
2022-09-06T20:46:29.627Z,5.03
2022-09-06T20:48:59.999Z,5.37
2022-09-06T20:51:29.615Z,5.43
2022-09-06T20:53:59.725Z,5.50
2022-09-06T20:56:29.287Z,5.03
2022-09-06T20:58:59.579Z,5.43
2022-09-06T21:01:29.475Z,5.13
2022-09-06T21:03:59.552Z,4.80
2022-09-06T21:06:31.229Z,4.80
2022-09-06T21:08:59.978Z,5.47
2022-09-06T21:11:28.143Z,5.37
2022-09-06T21:13:57.937Z,5.13
2022-09-06T21:16:27.728Z,5.07
2022-09-06T21:18:57.569Z,5.17
2022-09-06T21:21:27.068Z,5.30
2022-09-06T21:23:57.549Z,5.90
2022-09-06T21:26:25.745Z,4.93
2022-09-06T21:28:54.538Z,5.47
2022-09-06T21:31:24.642Z,5.57
2022-09-06T21:33:56.239Z,5.30
2022-09-06T21:36:25.799Z,5.10
2022-09-06T21:38:57.145Z,5.53
2022-09-06T21:41:25.336Z,5.27
2022-09-06T21:43:54.026Z,5.50
2022-09-06T21:46:23.479Z,5.50
2022-09-06T21:48:53.896Z,5.53
2022-09-06T21:51:25.000Z,5.57
2022-09-06T21:53:53.490Z,5.43
2022-09-06T21:56:24.400Z,5.00
2022-09-06T21:58:53.216Z,5.37
2022-09-06T22:01:21.677Z,4.90
2022-09-06T22:03:49.999Z,5.80
2022-09-06T22:06:20.407Z,5.87
2022-09-06T22:08:49.424Z,5.67
2022-09-06T22:11:19.326Z,5.80
2022-09-06T22:13:49.585Z,6.00
2022-09-06T22:16:19.096Z,6.17
2022-09-06T22:18:48.927Z,5.53
2022-09-06T22:21:20.406Z,6.47
2022-09-06T22:23:52.266Z,5.97
2022-09-06T22:26:20.978Z,6.03
2022-09-06T22:28:54.575Z,6.20
2022-09-06T22:31:22.919Z,6.00
2022-09-06T22:33:51.126Z,6.33
2022-09-06T22:36:19.333Z,6.03
2022-09-06T22:38:47.555Z,6.07
2022-09-06T22:41:15.757Z,6.00
2022-09-06T22:43:44.269Z,10.90
2022-09-06T22:46:14.506Z,6.83
2022-09-06T22:48:42.676Z,6.30
2022-09-06T22:51:10.917Z,5.87
2022-09-06T22:53:39.126Z,6.50
2022-09-06T22:56:07.556Z,6.13
2022-09-06T22:58:36.395Z,6.33
2022-09-06T23:01:09.376Z,6.37
2022-09-06T23:03:39.429Z,7.23
2022-09-06T23:06:07.958Z,7.37
2022-09-06T23:08:37.667Z,6.77
2022-09-06T23:11:08.175Z,7.37
2022-09-06T23:13:37.121Z,7.50
2022-09-06T23:16:06.541Z,7.87
2022-09-06T23:18:34.955Z,7.03
2022-09-06T23:21:08.661Z,7.53
2022-09-06T23:23:37.236Z,7.40
2022-09-06T23:26:06.860Z,6.97
2022-09-06T23:28:35.356Z,6.87
2022-09-06T23:31:04.824Z,6.70
2022-09-06T23:33:35.238Z,6.90
2022-09-06T23:36:03.770Z,6.70
2022-09-06T23:38:35.282Z,7.43
2022-09-06T23:41:03.986Z,9.13
2022-09-06T23:43:32.267Z,7.83
2022-09-06T23:46:00.687Z,7.27
2022-09-06T23:48:29.037Z,7.17
2022-09-06T23:50:57.325Z,7.37
2022-09-06T23:53:25.786Z,7.27
2022-09-06T23:55:55.396Z,6.73
2022-09-06T23:58:23.654Z,7.60
